Time;durP1;ratioP1;P1;durP2;ratioP2;P2;SDS_P1;SDS_P2;PMS_P1;PMS_P2;Temp;Humidity;BMP_temperature;BMP_pressure;BME280_temperature;BME280_humidity;BME280_pressure;Samples;Min_cycle;Max_cycle;Signal;HPM_P1;HPM_P2
2023/05/08 00:00:38;;;;;;;14.73;13.57;;;7.70;99.90;;;;;;5020540;28;20274;-48
2023/05/08 00:03:04;;;;;;;14.47;13.47;;;7.70;99.90;;;;;;5020722;28;20174;-49
2023/05/08 00:05:30;;;;;;;14.90;13.80;;;7.60;99.90;;;;;;5021227;28;20217;-46
2023/05/08 00:08:00;;;;;;;15.50;14.40;;;7.50;99.90;;;;;;5003164;28;20194;-46
2023/05/08 00:10:27;;;;;;;15.60;14.40;;;7.40;99.90;;;;;;5019433;28;20187;-45
2023/05/08 00:12:53;;;;;;;14.63;13.63;;;7.40;99.90;;;;;;5019063;28;20943;-52
2023/05/08 00:15:19;;;;;;;15.13;14.03;;;7.40;99.90;;;;;;5019519;28;20540;-47
2023/05/08 00:17:44;;;;;;;16.03;14.83;;;7.30;99.90;;;;;;5020511;28;20493;-51
2023/05/08 00:20:10;;;;;;;15.07;13.87;;;7.20;99.90;;;;;;5019623;28;20210;-45
2023/05/08 00:22:36;;;;;;;14.40;13.30;;;7.10;99.90;;;;;;5018486;28;20549;-49
2023/05/08 00:25:04;;;;;;;14.80;13.50;;;7.10;99.90;;;;;;5017672;28;20498;-48
2023/05/08 00:27:30;;;;;;;15.47;14.23;;;6.90;99.90;;;;;;5019698;28;20236;-45
2023/05/08 00:29:56;;;;;;;15.40;14.30;;;6.90;99.90;;;;;;5020064;28;20417;-47
2023/05/08 00:32:21;;;;;;;15.27;13.97;;;6.90;99.90;;;;;;5019512;28;20414;-48
2023/05/08 00:34:47;;;;;;;15.73;14.53;;;6.80;99.90;;;;;;5000522;28;20485;-47
2023/05/08 00:37:13;;;;;;;15.20;14.13;;;6.70;99.90;;;;;;5019068;28;20203;-46
2023/05/08 00:39:38;;;;;;;16.80;15.40;;;6.70;99.90;;;;;;5018666;28;20230;-45
2023/05/08 00:42:04;;;;;;;14.97;13.67;;;6.60;99.90;;;;;;5016912;28;20539;-48
2023/05/08 00:44:29;;;;;;;15.13;13.93;;;6.60;99.90;;;;;;5018945;28;20183;-51
2023/05/08 00:46:55;;;;;;;14.67;13.47;;;6.60;99.90;;;;;;5017535;28;20189;-45
2023/05/08 00:49:22;;;;;;;15.83;14.57;;;6.60;99.90;;;;;;5019431;28;20189;-45
2023/05/08 00:51:51;;;;;;;15.60;14.40;;;6.50;99.90;;;;;;5015916;28;20487;-47
2023/05/08 00:54:18;;;;;;;14.67;13.47;;;6.50;99.90;;;;;;5018005;28;20768;-49
2023/05/08 00:56:44;;;;;;;15.30;13.77;;;6.60;99.90;;;;;;5018642;28;20513;-47
2023/05/08 00:59:15;;;;;;;15.70;14.40;;;6.60;99.90;;;;;;5018612;28;20430;-50
2023/05/08 01:01:42;;;;;;;16.17;14.77;;;6.60;99.90;;;;;;5018387;28;20871;-45
2023/05/08 01:04:08;;;;;;;15.10;13.83;;;6.60;99.90;;;;;;5017059;28;20457;-47
2023/05/08 01:06:35;;;;;;;15.07;13.87;;;6.50;99.90;;;;;;5019731;28;20944;-46
2023/05/08 01:09:02;;;;;;;15.43;14.13;;;6.60;99.90;;;;;;5016853;28;20642;-52
2023/05/08 01:11:40;;;;;;;15.50;14.30;;;6.60;99.90;;;;;;5016827;28;20198;-48
2023/05/08 01:14:18;;;;;;;14.80;13.70;;;6.60;99.90;;;;;;5017785;28;20442;-49
2023/05/08 01:16:52;;;;;;;15.77;14.37;;;6.60;99.90;;;;;;5016832;28;20559;-45
2023/05/08 01:19:51;;;;;;;14.60;13.50;;;6.60;99.90;;;;;;5018004;28;20432;-47
2023/05/08 01:22:35;;;;;;;15.27;14.03;;;6.60;99.90;;;;;;5016716;28;20523;-47
2023/05/08 01:25:24;;;;;;;15.13;13.80;;;6.60;99.90;;;;;;5017937;28;20511;-46
2023/05/08 01:28:12;;;;;;;14.77;13.77;;;6.50;99.90;;;;;;4989689;28;20752;-51
2023/05/08 01:30:59;;;;;;;15.70;14.43;;;6.50;99.90;;;;;;5015909;28;21313;-51
2023/05/08 01:33:27;;;;;;;14.77;13.47;;;6.40;99.90;;;;;;5017907;28;20990;-48
2023/05/08 01:36:00;;;;;;;15.10;13.90;;;6.40;99.90;;;;;;5016506;28;20432;-48
2023/05/08 01:38:38;;;;;;;15.17;13.77;;;6.40;99.90;;;;;;5018043;28;20812;-47
2023/05/08 01:41:15;;;;;;;14.60;13.40;;;6.40;99.90;;;;;;4975881;28;20439;-45
2023/05/08 01:43:52;;;;;;;15.83;14.33;;;6.30;99.90;;;;;;4978714;28;20194;-46
2023/05/08 01:46:24;;;;;;;14.83;13.67;;;6.30;99.90;;;;;;4977601;28;20559;-49
2023/05/08 01:48:53;;;;;;;15.90;14.47;;;6.20;99.90;;;;;;4982039;28;21329;-45
2023/05/08 01:51:25;;;;;;;15.40;14.10;;;6.20;99.90;;;;;;4982548;28;20493;-46
2023/05/08 01:53:57;;;;;;;15.57;14.27;;;6.20;99.90;;;;;;4982106;28;20431;-49
2023/05/08 01:56:25;;;;;;;15.83;14.50;;;6.20;99.90;;;;;;4981156;28;20497;-50
2023/05/08 01:58:54;;;;;;;15.87;14.53;;;6.20;99.90;;;;;;4981296;28;21125;-50
2023/05/08 02:01:24;;;;;;;14.10;13.10;;;6.10;99.90;;;;;;4980514;28;20441;-47
2023/05/08 02:03:51;;;;;;;14.63;13.53;;;6.20;99.90;;;;;;4981032;28;20441;-46
2023/05/08 02:06:20;;;;;;;15.03;13.80;;;6.10;99.90;;;;;;4982481;28;20862;-51
2023/05/08 02:08:46;;;;;;;15.63;14.43;;;6.10;99.90;;;;;;4980727;28;20424;-49
2023/05/08 02:11:15;;;;;;;16.23;14.83;;;6.10;99.90;;;;;;4982469;28;20442;-44
2023/05/08 02:13:43;;;;;;;14.50;13.40;;;6.10;99.90;;;;;;4980689;28;20452;-52
2023/05/08 02:16:10;;;;;;;15.85;14.52;;;6.10;99.90;;;;;;4981207;28;20225;-46
2023/05/08 02:18:38;;;;;;;14.55;13.35;;;6.10;99.90;;;;;;4982459;28;20536;-48
2023/05/08 02:21:05;;;;;;;13.77;12.60;;;6.10;99.90;;;;;;4981878;28;20625;-46
2023/05/08 02:23:33;;;;;;;16.10;14.40;;;6.10;99.90;;;;;;4980397;28;20493;-48
2023/05/08 02:26:01;;;;;;;15.73;14.32;;;6.10;99.90;;;;;;4980113;28;20438;-50
2023/05/08 02:28:28;;;;;;;16.10;14.60;;;6.20;99.90;;;;;;4981385;28;20312;-47
2023/05/08 02:30:55;;;;;;;15.73;14.33;;;6.20;99.90;;;;;;4978886;28;20454;-47
2023/05/08 02:33:22;;;;;;;15.70;14.37;;;6.20;99.90;;;;;;4975640;28;20869;-51
2023/05/08 02:35:49;;;;;;;16.10;14.77;;;6.20;99.90;;;;;;4982309;28;20502;-48
2023/05/08 02:38:19;;;;;;;15.40;14.10;;;6.20;99.90;;;;;;4996762;28;20463;-49
2023/05/08 02:40:48;;;;;;;15.97;14.57;;;6.30;99.90;;;;;;5018510;28;20562;-50
2023/05/08 02:43:14;;;;;;;16.77;15.20;;;6.30;99.90;;;;;;5021700;28;20952;-45
2023/05/08 02:46:09;;;;;;;15.40;14.10;;;6.30;99.90;;;;;;5021262;28;20435;-48
2023/05/08 02:49:03;;;;;;;14.52;13.30;;;6.40;99.90;;;;;;5015654;28;20201;-48
2023/05/08 02:51:52;;;;;;;15.52;14.20;;;6.40;99.90;;;;;;5020859;28;20186;-46
2023/05/08 02:54:28;;;;;;;15.50;14.20;;;6.30;99.90;;;;;;5019759;28;20185;-48
2023/05/08 02:57:02;;;;;;;14.95;13.75;;;6.20;99.90;;;;;;5021144;28;20471;-50
2023/05/08 02:59:48;;;;;;;16.40;15.00;;;6.10;99.90;;;;;;5017856;28;20181;-46
2023/05/08 03:02:19;;;;;;;14.68;13.48;;;6.00;99.90;;;;;;5020436;28;20734;-49
2023/05/08 03:05:02;;;;;;;17.75;16.15;;;6.00;99.90;;;;;;5020325;28;20437;-48
2023/05/08 03:07:30;;;;;;;15.43;14.20;;;5.90;99.90;;;;;;5019831;28;20184;-47
2023/05/08 03:10:04;;;;;;;15.15;13.95;;;5.90;99.90;;;;;;5019756;28;20193;-51
2023/05/08 03:12:32;;;;;;;16.35;14.70;;;5.90;99.90;;;;;;5015593;28;20218;-54
2023/05/08 03:15:26;;;;;;;16.10;14.73;;;5.80;99.90;;;;;;5020022;28;20187;-46
2023/05/08 03:18:01;;;;;;;15.48;14.18;;;5.70;99.90;;;;;;5020338;28;20802;-50
2023/05/08 03:20:31;;;;;;;16.73;15.02;;;5.70;99.90;;;;;;5020501;28;20182;-50
2023/05/08 03:22:58;;;;;;;16.52;15.02;;;5.70;99.90;;;;;;5019739;28;20274;-50
2023/05/08 03:25:26;;;;;;;15.43;14.20;;;5.70;99.90;;;;;;5020642;28;20176;-49
2023/05/08 03:27:52;;;;;;;15.48;14.07;;;5.70;99.90;;;;;;5021053;28;20281;-46
2023/05/08 03:30:19;;;;;;;15.45;14.15;;;5.60;99.90;;;;;;5020095;28;20278;-48
2023/05/08 03:32:45;;;;;;;14.98;13.68;;;5.60;99.90;;;;;;5020123;28;20205;-51
2023/05/08 03:35:13;;;;;;;15.57;14.20;;;5.60;99.90;;;;;;5021225;28;20299;-45
2023/05/08 03:37:38;;;;;;;16.27;14.90;;;5.50;99.90;;;;;;5020673;28;20207;-48
2023/05/08 03:40:05;;;;;;;17.03;15.53;;;5.50;99.90;;;;;;5020930;28;20467;-47
2023/05/08 03:42:32;;;;;;;16.02;14.52;;;5.50;99.90;;;;;;5020005;28;20603;-49
2023/05/08 03:44:58;;;;;;;14.85;13.45;;;5.50;99.90;;;;;;5020071;28;20187;-46
2023/05/08 03:47:27;;;;;;;15.85;14.25;;;5.50;99.90;;;;;;5020362;28;20237;-50
2023/05/08 03:49:54;;;;;;;13.75;12.60;;;5.50;99.90;;;;;;5020632;28;20202;-48
2023/05/08 03:52:19;;;;;;;15.88;14.48;;;5.50;99.90;;;;;;5020002;28;20195;-49
2023/05/08 03:54:45;;;;;;;15.10;13.80;;;5.50;99.90;;;;;;5020275;28;20249;-47
2023/05/08 03:57:11;;;;;;;15.60;13.93;;;5.40;99.90;;;;;;5020210;28;20211;-46
2023/05/08 03:59:53;;;;;;;14.90;13.60;;;5.50;99.90;;;;;;5020094;28;20499;-47
2023/05/08 04:02:32;;;;;;;15.77;14.45;;;5.50;99.90;;;;;;5019595;28;20555;-47
2023/05/08 04:05:13;;;;;;;15.77;14.57;;;5.50;99.90;;;;;;5020250;28;20183;-47
2023/05/08 04:07:54;;;;;;;16.67;15.18;;;5.40;99.90;;;;;;5019046;28;20615;-50
2023/05/08 04:10:29;;;;;;;16.27;14.88;;;5.50;99.90;;;;;;5019374;28;20176;-48
2023/05/08 04:13:18;;;;;;;15.15;13.85;;;5.50;99.90;;;;;;5019540;28;20201;-48
2023/05/08 04:15:55;;;;;;;15.82;14.43;;;5.50;99.90;;;;;;5019797;28;20240;-53
2023/05/08 04:18:28;;;;;;;15.57;14.18;;;5.50;99.90;;;;;;5019903;28;20190;-49
2023/05/08 04:20:55;;;;;;;15.25;13.85;;;5.60;99.90;;;;;;5020168;28;20562;-50
2023/05/08 04:23:21;;;;;;;16.25;14.75;;;5.60;99.90;;;;;;5017491;28;20395;-46
2023/05/08 04:25:50;;;;;;;16.10;14.75;;;5.70;99.90;;;;;;5016182;28;20183;-48
2023/05/08 04:28:16;;;;;;;15.70;14.10;;;5.70;99.90;;;;;;5019137;28;20241;-50
2023/05/08 04:30:42;;;;;;;15.52;14.32;;;5.70;99.90;;;;;;5020242;28;20182;-48
2023/05/08 04:33:08;;;;;;;15.80;14.43;;;5.80;99.90;;;;;;5019601;28;20241;-48
2023/05/08 04:35:34;;;;;;;15.90;14.50;;;5.80;99.90;;;;;;5019319;28;20435;-51
2023/05/08 04:38:01;;;;;;;15.23;13.83;;;5.90;99.90;;;;;;5020124;28;20213;-51
2023/05/08 04:40:26;;;;;;;13.30;12.25;;;6.00;99.90;;;;;;5018645;28;20540;-51
2023/05/08 04:42:52;;;;;;;14.00;12.80;;;6.00;99.90;;;;;;5019604;28;20630;-53
2023/05/08 04:45:18;;;;;;;14.73;13.50;;;6.10;99.90;;;;;;5018034;28;20190;-53
2023/05/08 04:47:44;;;;;;;15.23;14.03;;;6.20;99.90;;;;;;5019970;28;20438;-48
2023/05/08 04:50:10;;;;;;;15.10;13.80;;;6.20;99.90;;;;;;5019063;28;20192;-53
2023/05/08 04:52:36;;;;;;;14.85;13.55;;;6.20;99.90;;;;;;5017834;28;20309;-46
2023/05/08 04:55:02;;;;;;;14.53;13.43;;;6.30;99.90;;;;;;5018898;28;20582;-51
2023/05/08 04:57:27;;;;;;;14.40;13.20;;;6.40;99.90;;;;;;5019243;28;20457;-50
2023/05/08 04:59:53;;;;;;;15.43;14.20;;;6.50;99.90;;;;;;5019381;28;20180;-52
2023/05/08 05:02:18;;;;;;;14.30;13.10;;;6.60;99.90;;;;;;5016853;28;20247;-48
2023/05/08 05:04:44;;;;;;;13.23;12.23;;;6.60;99.90;;;;;;5018371;28;20422;-51
2023/05/08 05:07:09;;;;;;;14.70;13.40;;;6.70;99.90;;;;;;5002153;28;20601;-46
2023/05/08 05:09:36;;;;;;;15.77;14.43;;;6.80;99.90;;;;;;5017202;28;20625;-50
2023/05/08 05:12:03;;;;;;;12.83;11.93;;;6.80;99.90;;;;;;5018235;28;20291;-50
2023/05/08 05:14:28;;;;;;;13.93;12.83;;;6.90;99.90;;;;;;5017967;28;20429;-49
2023/05/08 05:16:54;;;;;;;14.93;13.50;;;6.90;99.90;;;;;;5018370;28;20457;-47
2023/05/08 05:19:19;;;;;;;13.30;12.20;;;7.00;99.90;;;;;;5017022;28;20186;-50
2023/05/08 05:21:45;;;;;;;13.60;12.60;;;7.10;99.90;;;;;;5020302;28;20217;-47
2023/05/08 05:24:11;;;;;;;14.40;13.20;;;7.20;99.90;;;;;;5023588;28;20822;-47
2023/05/08 05:26:36;;;;;;;14.23;12.80;;;7.20;99.90;;;;;;5021414;28;20186;-47
2023/05/08 05:29:03;;;;;;;13.27;12.30;;;7.30;99.90;;;;;;5021567;28;20225;-53
2023/05/08 05:31:29;;;;;;;13.67;12.47;;;7.40;99.90;;;;;;5022786;28;20213;-49
2023/05/08 05:33:55;;;;;;;12.87;11.87;;;7.50;99.90;;;;;;5022488;28;20440;-44
2023/05/08 05:36:21;;;;;;;13.57;12.53;;;7.50;99.90;;;;;;5022684;28;20456;-48
2023/05/08 05:38:46;;;;;;;14.63;13.43;;;7.60;99.90;;;;;;5022513;28;20486;-47
2023/05/08 05:41:12;;;;;;;12.70;11.80;;;7.70;99.90;;;;;;5004854;28;20748;-47
2023/05/08 05:43:38;;;;;;;14.87;13.87;;;7.70;99.90;;;;;;5023301;28;20199;-47
2023/05/08 05:46:07;;;;;;;13.90;12.80;;;7.80;99.90;;;;;;5022534;28;20189;-48
2023/05/08 05:48:33;;;;;;;13.83;12.93;;;7.90;99.90;;;;;;5003442;28;20186;-46
2023/05/08 05:50:58;;;;;;;12.90;12.10;;;7.90;99.90;;;;;;5022672;28;20773;-45
2023/05/08 05:53:24;;;;;;;14.17;13.17;;;8.10;99.90;;;;;;5021936;28;20506;-48
2023/05/08 05:55:49;;;;;;;12.17;11.37;;;8.10;99.90;;;;;;5022271;28;20190;-53
2023/05/08 05:58:15;;;;;;;13.27;12.37;;;8.20;99.90;;;;;;5021327;28;20689;-47
2023/05/08 06:00:42;;;;;;;13.50;12.60;;;8.20;99.90;;;;;;5021464;28;20378;-48
2023/05/08 06:03:09;;;;;;;14.03;13.00;;;8.30;99.90;;;;;;5021888;28;20189;-47
2023/05/08 06:05:35;;;;;;;12.97;12.17;;;8.40;99.90;;;;;;5021444;28;20496;-51
2023/05/08 06:08:00;;;;;;;13.13;12.17;;;8.50;99.90;;;;;;5022279;28;21005;-50
2023/05/08 06:10:26;;;;;;;12.73;11.87;;;8.60;99.90;;;;;;5021322;28;20499;-46
2023/05/08 06:12:52;;;;;;;12.67;11.87;;;8.70;99.90;;;;;;5021931;28;20185;-51
2023/05/08 06:15:18;;;;;;;14.30;13.30;;;8.80;99.90;;;;;;5022182;28;20827;-54
2023/05/08 06:17:43;;;;;;;11.90;11.10;;;8.80;99.90;;;;;;5021399;28;20217;-48
2023/05/08 06:20:09;;;;;;;11.80;11.00;;;8.90;99.90;;;;;;5022645;28;20203;-50
2023/05/08 06:22:36;;;;;;;13.57;12.57;;;9.00;99.90;;;;;;5020815;28;20548;-51
2023/05/08 06:25:02;;;;;;;10.90;10.10;;;9.10;99.90;;;;;;5021480;28;20604;-49
2023/05/08 06:27:28;;;;;;;11.20;10.50;;;9.10;99.90;;;;;;5022380;28;20532;-48
2023/05/08 06:29:53;;;;;;;11.20;10.50;;;9.20;99.90;;;;;;5020158;28;20442;-45
2023/05/08 06:32:20;;;;;;;11.67;10.90;;;9.30;99.90;;;;;;5020535;28;20190;-49
2023/05/08 06:34:46;;;;;;;13.27;12.37;;;9.40;99.90;;;;;;5021439;28;20544;-47
2023/05/08 06:37:11;;;;;;;12.70;11.83;;;9.40;99.90;;;;;;5019262;28;20476;-46
2023/05/08 06:39:37;;;;;;;12.80;11.90;;;9.50;99.90;;;;;;5003800;28;20242;-50
2023/05/08 06:42:05;;;;;;;12.87;12.10;;;9.50;99.90;;;;;;5019974;28;20227;-47
2023/05/08 06:44:33;;;;;;;12.47;11.77;;;9.60;99.90;;;;;;5021537;28;20190;-50
2023/05/08 06:46:59;;;;;;;13.20;12.40;;;9.70;99.90;;;;;;5021400;28;20548;-48
2023/05/08 06:49:25;;;;;;;12.00;11.20;;;9.70;99.90;;;;;;5021642;28;20551;-48
2023/05/08 06:51:50;;;;;;;12.90;11.80;;;9.80;99.90;;;;;;5020991;28;20201;-47
2023/05/08 06:54:16;;;;;;;11.83;11.10;;;9.90;99.90;;;;;;5021416;28;20197;-49
2023/05/08 06:56:42;;;;;;;12.03;11.27;;;10.00;99.90;;;;;;5017414;28;20214;-50
2023/05/08 06:59:07;;;;;;;12.10;11.50;;;10.10;99.60;;;;;;5020227;28;20183;-46
2023/05/08 07:01:33;;;;;;;11.77;11.07;;;10.20;99.40;;;;;;5020819;28;20273;-50
2023/05/08 07:04:00;;;;;;;12.17;11.47;;;10.30;99.10;;;;;;5019190;28;20580;-48
2023/05/08 07:06:26;;;;;;;11.73;11.03;;;10.40;98.80;;;;;;5021409;28;20189;-49
2023/05/08 07:08:52;;;;;;;12.70;12.00;;;10.50;98.60;;;;;;5018829;28;20479;-46
2023/05/08 07:11:17;;;;;;;12.20;11.50;;;10.60;98.30;;;;;;5016998;28;20997;-46
2023/05/08 07:13:44;;;;;;;11.03;10.43;;;10.60;97.60;;;;;;5018304;28;20655;-46
2023/05/08 07:16:11;;;;;;;12.40;11.70;;;10.70;97.60;;;;;;5020976;28;20182;-46
2023/05/08 07:18:36;;;;;;;10.90;10.20;;;10.80;96.70;;;;;;5020474;28;20441;-47
2023/05/08 07:21:02;;;;;;;12.33;11.63;;;10.90;96.60;;;;;;5019661;28;20440;-49
2023/05/08 07:23:28;;;;;;;12.33;11.63;;;11.00;96.10;;;;;;5021097;28;20265;-50
2023/05/08 07:25:54;;;;;;;11.00;10.30;;;11.10;95.90;;;;;;5021120;28;20470;-50
2023/05/08 07:28:19;;;;;;;11.10;10.50;;;11.30;95.70;;;;;;5021492;28;20183;-50
2023/05/08 07:30:45;;;;;;;10.80;10.20;;;11.40;94.90;;;;;;5020990;28;20647;-47
2023/05/08 07:33:11;;;;;;;12.60;11.90;;;11.50;94.00;;;;;;5021292;28;20179;-50
2023/05/08 07:35:41;;;;;;;12.60;11.90;;;11.60;94.10;;;;;;5021540;28;20440;-47
2023/05/08 07:38:07;;;;;;;12.10;11.40;;;11.70;94.10;;;;;;5021037;28;20623;-49
2023/05/08 07:40:32;;;;;;;11.07;10.47;;;11.80;93.70;;;;;;5021010;28;21076;-47
2023/05/08 07:42:58;;;;;;;11.37;10.67;;;12.00;93.30;;;;;;5021414;28;20421;-50
2023/05/08 07:45:24;;;;;;;11.90;11.30;;;12.10;93.20;;;;;;5020429;28;20210;-48
2023/05/08 07:47:57;;;;;;;11.10;10.57;;;12.20;92.70;;;;;;5021185;28;20191;-50
2023/05/08 07:50:24;;;;;;;11.20;10.57;;;12.40;91.60;;;;;;5020330;28;21262;-50
2023/05/08 07:52:50;;;;;;;11.80;11.20;;;12.50;91.30;;;;;;5020917;28;20418;-46
2023/05/08 07:55:16;;;;;;;11.40;10.90;;;12.60;90.10;;;;;;5020532;28;20425;-48
2023/05/08 07:57:43;;;;;;;11.60;11.00;;;12.70;88.30;;;;;;5020510;28;20468;-47
2023/05/08 08:00:10;;;;;;;10.97;10.40;;;12.70;87.10;;;;;;5021041;28;20481;-49
2023/05/08 08:02:37;;;;;;;10.50;9.77;;;12.80;87.00;;;;;;5020277;28;20426;-47
2023/05/08 08:05:03;;;;;;;11.43;10.90;;;12.90;86.90;;;;;;5002967;28;20471;-48
2023/05/08 08:07:31;;;;;;;11.70;11.10;;;13.10;85.70;;;;;;5020460;28;20474;-44
2023/05/08 08:09:57;;;;;;;10.80;10.30;;;13.20;83.60;;;;;;5002487;28;20579;-46
2023/05/08 08:12:23;;;;;;;10.83;10.23;;;13.40;83.50;;;;;;5020291;28;20416;-44
2023/05/08 08:14:48;;;;;;;11.13;10.53;;;13.50;83.00;;;;;;5020720;28;20405;-50
2023/05/08 08:17:14;;;;;;;12.33;11.60;;;13.70;81.40;;;;;;5019914;28;20202;-49
2023/05/08 08:19:39;;;;;;;11.47;10.87;;;13.70;79.70;;;;;;5020775;28;20182;-46
2023/05/08 08:22:05;;;;;;;10.60;10.10;;;14.00;78.20;;;;;;5002362;28;20281;-49
2023/05/08 08:24:31;;;;;;;10.90;10.40;;;14.10;75.20;;;;;;5019943;28;20350;-51
2023/05/08 08:26:56;;;;;;;10.87;10.37;;;14.30;73.80;;;;;;5020144;28;20190;-46
2023/05/08 08:29:23;;;;;;;11.33;10.73;;;14.40;71.10;;;;;;5019835;28;20265;-45
2023/05/08 08:31:48;;;;;;;11.80;11.20;;;14.60;71.50;;;;;;5020092;28;20194;-45
2023/05/08 08:34:14;;;;;;;11.40;10.90;;;14.70;70.70;;;;;;5019821;28;20482;-46
2023/05/08 08:36:39;;;;;;;10.57;10.07;;;14.90;69.20;;;;;;5019661;28;20202;-48
2023/05/08 08:39:05;;;;;;;11.13;10.63;;;15.00;62.00;;;;;;5019747;28;20226;-48
2023/05/08 08:41:31;;;;;;;11.10;10.60;;;15.20;65.00;;;;;;5019560;28;20527;-46
2023/05/08 08:43:58;;;;;;;11.57;11.00;;;15.40;61.90;;;;;;5019992;28;20186;-47
2023/05/08 08:46:25;;;;;;;10.23;9.73;;;15.60;61.30;;;;;;5019600;28;20405;-47
2023/05/08 08:48:54;;;;;;;11.27;10.77;;;15.80;60.20;;;;;;5019512;28;20421;-51
2023/05/08 08:51:44;;;;;;;11.30;10.80;;;16.10;59.50;;;;;;5019441;28;20982;-46
2023/05/08 08:54:11;;;;;;;11.70;11.20;;;16.40;57.30;;;;;;5019447;28;20990;-49
2023/05/08 08:56:39;;;;;;;10.83;10.33;;;16.60;57.50;;;;;;5018579;28;20461;-48
2023/05/08 08:59:07;;;;;;;9.77;9.37;;;16.90;55.30;;;;;;5019591;28;20425;-50
2023/05/08 09:01:37;;;;;;;9.47;9.03;;;17.30;56.60;;;;;;5019866;28;20421;-49
2023/05/08 09:04:04;;;;;;;9.80;9.40;;;17.70;52.40;;;;;;5019466;28;20420;-45
2023/05/08 09:06:30;;;;;;;10.17;9.57;;;18.10;53.10;;;;;;5019041;28;20791;-46
2023/05/08 09:08:59;;;;;;;11.00;10.50;;;18.50;51.30;;;;;;5019625;28;20421;-48
2023/05/08 09:11:25;;;;;;;10.10;9.70;;;19.10;50.10;;;;;;5019461;28;20425;-45
2023/05/08 09:13:50;;;;;;;10.90;10.40;;;19.30;45.90;;;;;;5019603;28;20461;-46
2023/05/08 09:16:17;;;;;;;10.30;9.80;;;19.50;45.60;;;;;;5019203;28;20413;-47
2023/05/08 09:18:42;;;;;;;10.43;9.93;;;19.90;46.00;;;;;;5019244;28;20666;-48
2023/05/08 09:21:08;;;;;;;9.80;9.40;;;20.40;43.90;;;;;;5019159;28;20414;-51
2023/05/08 09:23:53;;;;;;;10.47;10.07;;;20.60;39.60;;;;;;5019624;28;20232;-50
2023/05/08 09:26:37;;;;;;;10.33;9.83;;;21.00;41.00;;;;;;5019689;28;20236;-50
2023/05/08 09:29:23;;;;;;;9.27;8.87;;;21.30;38.50;;;;;;5019423;28;20421;-49
2023/05/08 09:31:50;;;;;;;10.20;9.80;;;21.60;37.20;;;;;;5019578;28;20456;-49
2023/05/08 09:34:30;;;;;;;10.97;10.47;;;22.10;39.20;;;;;;5020130;28;20423;-48
2023/05/08 09:37:16;;;;;;;10.90;10.40;;;22.50;35.50;;;;;;5019344;28;20503;-51
2023/05/08 09:39:42;;;;;;;11.20;10.77;;;23.40;35.70;;;;;;5018696;28;20483;-49
2023/05/08 09:42:08;;;;;;;10.03;9.60;;;23.70;33.50;;;;;;5019197;28;20405;-47
2023/05/08 09:44:48;;;;;;;10.70;10.30;;;23.80;29.90;;;;;;5019510;28;20428;-49
2023/05/08 09:47:22;;;;;;;10.00;9.60;;;23.90;30.90;;;;;;5019795;28;20412;-50
2023/05/08 09:50:02;;;;;;;10.50;10.10;;;24.50;31.60;;;;;;5019098;28;20427;-48
2023/05/08 09:52:29;;;;;;;10.23;9.83;;;24.60;28.90;;;;;;5018972;28;20440;-47
2023/05/08 09:54:59;;;;;;;10.30;9.90;;;25.10;29.10;;;;;;5018903;28;20428;-49
2023/05/08 09:57:25;;;;;;;9.87;9.40;;;25.10;29.20;;;;;;5019098;28;20722;-52
2023/05/08 09:59:58;;;;;;;10.13;9.73;;;25.20;27.40;;;;;;5019351;28;20429;-47
2023/05/08 10:02:25;;;;;;;11.30;10.70;;;25.40;27.70;;;;;;5018601;28;20728;-51
2023/05/08 10:04:50;;;;;;;11.03;10.53;;;25.60;26.60;;;;;;5019124;28;20405;-53
2023/05/08 10:07:27;;;;;;;10.73;10.33;;;25.80;27.60;;;;;;5018685;28;20915;-51
2023/05/08 10:10:13;;;;;;;11.40;10.80;;;26.20;27.00;;;;;;5022472;28;20668;-48
2023/05/08 10:12:40;;;;;;;10.00;9.60;;;26.50;25.30;;;;;;5022795;28;21617;-47
2023/05/08 10:15:06;;;;;;;9.40;9.00;;;26.70;24.30;;;;;;5022625;28;20973;-50
2023/05/08 10:17:58;;;;;;;9.90;9.50;;;26.80;24.50;;;;;;5022113;28;20473;-46
2023/05/08 10:20:29;;;;;;;10.10;9.70;;;26.90;23.50;;;;;;5023032;28;20931;-51
2023/05/08 10:22:56;;;;;;;10.07;9.67;;;26.70;23.40;;;;;;5022506;28;20899;-51
2023/05/08 10:25:23;;;;;;;11.10;10.60;;;26.10;25.20;;;;;;5022306;28;20416;-47
2023/05/08 10:28:01;;;;;;;10.23;9.83;;;26.20;25.50;;;;;;5022765;28;20823;-46
2023/05/08 10:30:29;;;;;;;11.20;10.60;;;26.00;26.00;;;;;;5022072;28;20614;-47
2023/05/08 10:32:58;;;;;;;10.83;10.33;;;25.30;23.90;;;;;;5022100;28;20475;-50
2023/05/08 10:35:24;;;;;;;12.80;12.00;;;25.10;24.70;;;;;;5021987;28;20427;-49
2023/05/08 10:37:50;;;;;;;10.70;10.20;;;25.30;25.90;;;;;;5021903;28;20461;-50
2023/05/08 10:40:20;;;;;;;11.53;11.03;;;25.60;25.50;;;;;;5021603;28;20469;-51
2023/05/08 10:42:46;;;;;;;10.10;9.70;;;25.80;25.30;;;;;;5022043;28;20409;-51
2023/05/08 10:45:12;;;;;;;10.50;10.00;;;26.30;26.50;;;;;;5004459;28;20417;-49
2023/05/08 10:47:58;;;;;;;10.40;10.00;;;26.70;25.60;;;;;;5021773;28;20436;-48
2023/05/08 10:50:33;;;;;;;10.67;10.17;;;27.60;25.90;;;;;;5021634;28;20429;-50
2023/05/08 10:53:06;;;;;;;10.73;10.23;;;28.40;24.70;;;;;;5022300;28;20519;-51
2023/05/08 10:55:36;;;;;;;11.00;10.50;;;28.70;22.60;;;;;;5021645;28;20949;-52
2023/05/08 10:58:12;;;;;;;10.13;9.73;;;29.00;23.60;;;;;;5021723;28;20475;-49
2023/05/08 11:00:55;;;;;;;9.60;9.20;;;29.20;24.00;;;;;;5004201;28;20563;-50
2023/05/08 11:03:26;;;;;;;10.13;9.73;;;29.10;20.10;;;;;;5021459;28;20504;-51
2023/05/08 11:05:54;;;;;;;10.33;9.83;;;29.20;22.30;;;;;;5021752;28;20432;-50
2023/05/08 11:08:26;;;;;;;10.10;9.60;;;29.30;21.30;;;;;;5021572;28;20425;-49
2023/05/08 11:11:01;;;;;;;10.37;9.90;;;29.50;20.20;;;;;;5021975;28;20414;-49
2023/05/08 11:13:53;;;;;;;9.27;8.87;;;29.90;20.70;;;;;;5021452;28;20452;-51
2023/05/08 11:16:59;;;;;;;9.93;9.53;;;30.40;20.30;;;;;;5021391;28;20421;-50
2023/05/08 11:19:25;;;;;;;10.57;10.17;;;30.60;19.10;;;;;;5009004;28;20955;-48
2023/05/08 11:22:13;;;;;;;10.03;9.63;;;30.90;19.10;;;;;;5021226;28;20425;-51
2023/05/08 11:24:40;;;;;;;10.97;10.50;;;31.30;18.00;;;;;;5021125;28;20790;-50
2023/05/08 11:27:06;;;;;;;10.47;10.07;;;31.30;18.40;;;;;;5021346;28;20463;-46
2023/05/08 11:29:32;;;;;;;9.80;9.40;;;31.10;17.30;;;;;;5021042;28;20417;-47
2023/05/08 11:31:57;;;;;;;9.90;9.50;;;30.80;18.40;;;;;;5021068;28;20770;-51
2023/05/08 11:34:41;;;;;;;10.37;9.87;;;30.80;18.40;;;;;;5020845;28;20186;-54
2023/05/08 11:37:20;;;;;;;10.70;10.20;;;30.20;16.00;;;;;;5021460;28;20198;-48
2023/05/08 11:39:47;;;;;;;10.47;10.07;;;29.30;18.80;;;;;;5020793;28;20843;-51
2023/05/08 11:42:25;;;;;;;10.17;9.70;;;28.50;18.30;;;;;;5020903;28;20446;-47
2023/05/08 11:45:09;;;;;;;10.30;9.90;;;28.60;19.10;;;;;;5021067;28;20497;-51
2023/05/08 11:47:43;;;;;;;10.60;10.10;;;28.30;18.20;;;;;;5020517;28;20421;-51
2023/05/08 11:50:11;;;;;;;10.27;9.87;;;28.90;19.20;;;;;;5021062;28;20876;-48
2023/05/08 11:52:38;;;;;;;10.80;10.30;;;28.50;16.70;;;;;;5020661;28;20475;-51
2023/05/08 11:55:06;;;;;;;9.00;8.70;;;28.50;16.30;;;;;;5020164;28;20903;-51
2023/05/08 11:57:32;;;;;;;9.83;9.43;;;28.80;18.20;;;;;;5020660;28;20959;-50
2023/05/08 12:00:09;;;;;;;8.43;8.13;;;29.60;17.20;;;;;;5020756;28;20463;-51
2023/05/08 12:02:42;;;;;;;9.70;9.30;;;29.90;17.20;;;;;;5020529;28;20174;-48
2023/05/08 12:05:09;;;;;;;10.33;9.90;;;30.30;17.80;;;;;;5020668;28;20528;-52
2023/05/08 12:07:47;;;;;;;9.47;9.07;;;30.50;17.00;;;;;;5020965;28;20440;-53
2023/05/08 12:10:14;;;;;;;10.50;10.07;;;30.10;14.40;;;;;;5020118;28;20428;-49
2023/05/08 12:12:41;;;;;;;10.07;9.67;;;30.10;14.80;;;;;;5020540;28;20419;-53
2023/05/08 12:15:12;;;;;;;8.50;8.20;;;29.40;14.20;;;;;;5020474;28;20425;-52
2023/05/08 12:17:38;;;;;;;7.40;7.10;;;29.20;13.80;;;;;;5020058;28;20807;-49
2023/05/08 12:20:15;;;;;;;9.70;9.30;;;28.80;16.50;;;;;;5020517;28;20424;-51
2023/05/08 12:22:42;;;;;;;9.43;9.03;;;28.50;17.50;;;;;;5020010;28;20413;-53
2023/05/08 12:25:10;;;;;;;9.53;9.13;;;28.40;16.00;;;;;;5020360;28;20420;-49
2023/05/08 12:27:37;;;;;;;8.77;8.47;;;28.20;13.00;;;;;;5020019;28;20429;-48
2023/05/08 12:30:10;;;;;;;10.13;9.73;;;28.40;14.40;;;;;;5020484;28;20428;-47
2023/05/08 12:32:38;;;;;;;8.60;8.20;;;28.20;11.90;;;;;;5019842;28;20823;-50
2023/05/08 12:35:08;;;;;;;9.80;9.40;;;28.50;11.90;;;;;;5019931;28;20835;-50
2023/05/08 12:37:35;;;;;;;8.80;8.50;;;28.80;12.40;;;;;;5020397;28;20464;-46
2023/05/08 12:40:01;;;;;;;8.97;8.67;;;28.90;12.90;;;;;;5019642;28;20469;-54
2023/05/08 12:42:48;;;;;;;9.50;9.10;;;29.00;12.30;;;;;;5019788;28;20731;-47
2023/05/08 12:45:22;;;;;;;9.00;8.70;;;29.90;14.70;;;;;;5019514;28;20823;-52
2023/05/08 12:47:49;;;;;;;9.80;9.17;;;29.20;9.70;;;;;;5020204;28;20440;-50